sensor_id;sensor_type;location;lat;lon;timestamp;temperature;humidity
40816;DHT22;26535;48.788;9.214;2023-04-24T00:00:11;11.90;99.90
40816;DHT22;26535;48.788;9.214;2023-04-24T05:01:21;10.50;99.90
40816;DHT22;26535;48.788;9.214;2023-04-24T05:03:49;10.40;99.90
40816;DHT22;26535;48.788;9.214;2023-04-24T05:06:16;10.40;99.90
40816;DHT22;26535;48.788;9.214;2023-04-24T05:08:43;10.40;99.90
40816;DHT22;26535;48.788;9.214;2023-04-24T05:11:16;10.40;99.90
40816;DHT22;26535;48.788;9.214;2023-04-24T05:13:42;10.40;99.90
40816;DHT22;26535;48.788;9.214;2023-04-24T05:16:13;10.40;99.90
40816;DHT22;26535;48.788;9.214;2023-04-24T05:18:39;10.40;99.90
40816;DHT22;26535;48.788;9.214;2023-04-24T05:21:06;10.50;99.90
40816;DHT22;26535;48.788;9.214;2023-04-24T05:23:32;10.60;99.90
40816;DHT22;26535;48.788;9.214;2023-04-24T05:25:58;10.50;99.90
40816;DHT22;26535;48.788;9.214;2023-04-24T05:28:23;10.60;99.90
40816;DHT22;26535;48.788;9.214;2023-04-24T05:31:02;10.60;99.90
40816;DHT22;26535;48.788;9.214;2023-04-24T05:33:28;10.60;99.90
40816;DHT22;26535;48.788;9.214;2023-04-24T05:35:54;10.60;99.90
40816;DHT22;26535;48.788;9.214;2023-04-24T05:38:20;10.60;99.90
40816;DHT22;26535;48.788;9.214;2023-04-24T05:40:46;10.60;99.90
40816;DHT22;26535;48.788;9.214;2023-04-24T05:43:12;10.70;99.90
40816;DHT22;26535;48.788;9.214;2023-04-24T05:45:39;10.70;99.90
40816;DHT22;26535;48.788;9.214;2023-04-24T05:48:05;10.70;99.90
40816;DHT22;26535;48.788;9.214;2023-04-24T05:50:32;10.70;99.90
40816;DHT22;26535;48.788;9.214;2023-04-24T05:52:57;10.70;99.90
40816;DHT22;26535;48.788;9.214;2023-04-24T05:55:32;10.80;99.90
40816;DHT22;26535;48.788;9.214;2023-04-24T05:57:58;10.80;99.90
40816;DHT22;26535;48.788;9.214;2023-04-24T06:00:25;10.90;99.90
40816;DHT22;26535;48.788;9.214;2023-04-24T06:03:00;11.00;99.90
40816;DHT22;26535;48.788;9.214;2023-04-24T06:05:26;10.90;99.90
40816;DHT22;26535;48.788;9.214;2023-04-24T06:07:52;10.90;99.90
40816;DHT22;26535;48.788;9.214;2023-04-24T06:10:20;10.90;99.90
40816;DHT22;26535;48.788;9.214;2023-04-24T06:12:46;10.90;99.90
40816;DHT22;26535;48.788;9.214;2023-04-24T06:15:16;10.70;99.90
40816;DHT22;26535;48.788;9.214;2023-04-24T06:17:55;10.70;99.90
40816;DHT22;26535;48.788;9.214;2023-04-24T06:20:21;10.70;99.90
40816;DHT22;26535;48.788;9.214;2023-04-24T06:22:46;10.70;99.90
40816;DHT22;26535;48.788;9.214;2023-04-24T06:25:12;10.70;99.90
40816;DHT22;26535;48.788;9.214;2023-04-24T06:27:38;10.80;99.90
40816;DHT22;26535;48.788;9.214;2023-04-24T06:30:04;10.90;99.90
40816;DHT22;26535;48.788;9.214;2023-04-24T06:32:30;11.00;99.90
40816;DHT22;26535;48.788;9.214;2023-04-24T06:34:56;11.20;99.90
40816;DHT22;26535;48.788;9.214;2023-04-24T06:37:22;11.50;99.90
40816;DHT22;26535;48.788;9.214;2023-04-24T06:39:48;11.70;99.90
40816;DHT22;26535;48.788;9.214;2023-04-24T06:42:13;11.90;99.90
40816;DHT22;26535;48.788;9.214;2023-04-24T06:44:42;12.00;99.90
40816;DHT22;26535;48.788;9.214;2023-04-24T06:47:11;12.20;99.90
40816;DHT22;26535;48.788;9.214;2023-04-24T06:49:39;12.20;99.90
40816;DHT22;26535;48.788;9.214;2023-04-24T06:52:05;12.20;99.90
40816;DHT22;26535;48.788;9.214;2023-04-24T06:54:32;12.20;99.90
40816;DHT22;26535;48.788;9.214;2023-04-24T06:56:59;12.40;99.90
40816;DHT22;26535;48.788;9.214;2023-04-24T06:59:26;12.60;99.90
40816;DHT22;26535;48.788;9.214;2023-04-24T07:01:52;12.70;99.90
40816;DHT22;26535;48.788;9.214;2023-04-24T07:04:18;13.00;99.90
40816;DHT22;26535;48.788;9.214;2023-04-24T07:06:47;13.20;99.90
40816;DHT22;26535;48.788;9.214;2023-04-24T07:09:14;13.40;99.90
40816;DHT22;26535;48.788;9.214;2023-04-24T07:11:41;13.50;99.90
40816;DHT22;26535;48.788;9.214;2023-04-24T07:14:07;13.50;99.90
40816;DHT22;26535;48.788;9.214;2023-04-24T07:16:33;13.70;99.90
40816;DHT22;26535;48.788;9.214;2023-04-24T07:18:59;13.40;99.90
40816;DHT22;26535;48.788;9.214;2023-04-24T07:21:25;13.00;99.90
40816;DHT22;26535;48.788;9.214;2023-04-24T07:23:52;12.80;99.90
40816;DHT22;26535;48.788;9.214;2023-04-24T07:26:19;12.60;99.90
40816;DHT22;26535;48.788;9.214;2023-04-24T07:28:46;12.70;99.90
40816;DHT22;26535;48.788;9.214;2023-04-24T07:31:12;12.70;99.90
40816;DHT22;26535;48.788;9.214;2023-04-24T07:33:40;12.80;99.90
40816;DHT22;26535;48.788;9.214;2023-04-24T07:36:06;12.90;99.90
40816;DHT22;26535;48.788;9.214;2023-04-24T07:38:32;13.00;99.30
40816;DHT22;26535;48.788;9.214;2023-04-24T07:40:58;13.00;97.80
40816;DHT22;26535;48.788;9.214;2023-04-24T07:43:23;13.10;97.00
40816;DHT22;26535;48.788;9.214;2023-04-24T07:45:52;13.20;97.30
40816;DHT22;26535;48.788;9.214;2023-04-24T07:48:18;13.50;96.30
40816;DHT22;26535;48.788;9.214;2023-04-24T07:50:44;13.70;94.90
40816;DHT22;26535;48.788;9.214;2023-04-24T07:53:10;13.90;93.50
40816;DHT22;26535;48.788;9.214;2023-04-24T07:55:36;14.00;93.60
40816;DHT22;26535;48.788;9.214;2023-04-24T07:58:02;13.80;93.30
40816;DHT22;26535;48.788;9.214;2023-04-24T08:00:28;13.70;93.00
40816;DHT22;26535;48.788;9.214;2023-04-24T08:02:53;13.60;92.70
40816;DHT22;26535;48.788;9.214;2023-04-24T08:05:19;13.50;93.10
40816;DHT22;26535;48.788;9.214;2023-04-24T08:07:46;13.50;92.40
40816;DHT22;26535;48.788;9.214;2023-04-24T08:10:14;13.20;92.60
40816;DHT22;26535;48.788;9.214;2023-04-24T08:12:40;13.10;92.80
40816;DHT22;26535;48.788;9.214;2023-04-24T08:15:07;13.00;92.50
40816;DHT22;26535;48.788;9.214;2023-04-24T08:17:34;13.10;93.60
40816;DHT22;26535;48.788;9.214;2023-04-24T08:20:01;13.20;93.00
40816;DHT22;26535;48.788;9.214;2023-04-24T08:22:27;13.30;92.80
40816;DHT22;26535;48.788;9.214;2023-04-24T08:24:54;13.20;91.90
40816;DHT22;26535;48.788;9.214;2023-04-24T08:27:21;13.10;92.30
40816;DHT22;26535;48.788;9.214;2023-04-24T08:29:47;12.80;92.40
40816;DHT22;26535;48.788;9.214;2023-04-24T08:32:12;12.80;92.40
40816;DHT22;26535;48.788;9.214;2023-04-24T08:34:38;12.80;92.90
40816;DHT22;26535;48.788;9.214;2023-04-24T08:37:04;12.90;92.50
40816;DHT22;26535;48.788;9.214;2023-04-24T08:39:30;12.90;92.20
40816;DHT22;26535;48.788;9.214;2023-04-24T08:41:56;12.90;92.10
40816;DHT22;26535;48.788;9.214;2023-04-24T08:44:21;13.20;92.20
40816;DHT22;26535;48.788;9.214;2023-04-24T08:46:48;13.40;92.10
40816;DHT22;26535;48.788;9.214;2023-04-24T08:49:15;13.40;91.40
40816;DHT22;26535;48.788;9.214;2023-04-24T08:51:42;13.30;91.70
40816;DHT22;26535;48.788;9.214;2023-04-24T08:54:08;13.30;91.30
40816;DHT22;26535;48.788;9.214;2023-04-24T08:56:36;13.00;92.10
40816;DHT22;26535;48.788;9.214;2023-04-24T08:59:08;12.90;92.50
40816;DHT22;26535;48.788;9.214;2023-04-24T09:01:34;12.90;92.40
40816;DHT22;26535;48.788;9.214;2023-04-24T09:04:03;12.90;92.30
40816;DHT22;26535;48.788;9.214;2023-04-24T09:06:30;13.30;92.20
40816;DHT22;26535;48.788;9.214;2023-04-24T09:09:00;13.50;92.10
40816;DHT22;26535;48.788;9.214;2023-04-24T09:11:27;13.30;91.90
40816;DHT22;26535;48.788;9.214;2023-04-24T09:13:54;13.30;92.70
40816;DHT22;26535;48.788;9.214;2023-04-24T09:16:20;13.10;92.50
40816;DHT22;26535;48.788;9.214;2023-04-24T09:18:46;12.90;93.00
40816;DHT22;26535;48.788;9.214;2023-04-24T09:21:12;12.60;93.50
40816;DHT22;26535;48.788;9.214;2023-04-24T09:23:38;12.20;96.00
40816;DHT22;26535;48.788;9.214;2023-04-24T09:26:04;11.60;99.90
40816;DHT22;26535;48.788;9.214;2023-04-24T09:28:34;11.60;99.90
40816;DHT22;26535;48.788;9.214;2023-04-24T09:31:17;11.40;99.90
40816;DHT22;26535;48.788;9.214;2023-04-24T09:33:56;11.30;99.90
40816;DHT22;26535;48.788;9.214;2023-04-24T09:36:36;11.30;99.90
40816;DHT22;26535;48.788;9.214;2023-04-24T09:39:13;11.20;99.90
40816;DHT22;26535;48.788;9.214;2023-04-24T09:44:19;11.40;99.90
40816;DHT22;26535;48.788;9.214;2023-04-24T09:46:56;11.60;99.90
40816;DHT22;26535;48.788;9.214;2023-04-24T09:49:23;11.90;99.20
40816;DHT22;26535;48.788;9.214;2023-04-24T09:51:50;12.20;99.20
40816;DHT22;26535;48.788;9.214;2023-04-24T09:54:17;12.60;97.10
40816;DHT22;26535;48.788;9.214;2023-04-24T09:56:45;12.90;95.70
40816;DHT22;26535;48.788;9.214;2023-04-24T09:59:11;13.00;95.20
40816;DHT22;26535;48.788;9.214;2023-04-24T10:01:37;13.10;95.50
40816;DHT22;26535;48.788;9.214;2023-04-24T10:04:06;13.20;94.30
40816;DHT22;26535;48.788;9.214;2023-04-24T10:06:35;13.40;94.10
40816;DHT22;26535;48.788;9.214;2023-04-24T10:09:02;13.60;93.80
40816;DHT22;26535;48.788;9.214;2023-04-24T10:11:29;13.50;91.90
40816;DHT22;26535;48.788;9.214;2023-04-24T10:13:56;13.50;92.00
40816;DHT22;26535;48.788;9.214;2023-04-24T10:16:24;13.50;91.60
40816;DHT22;26535;48.788;9.214;2023-04-24T10:18:52;13.60;91.20
40816;DHT22;26535;48.788;9.214;2023-04-24T10:21:18;13.60;90.30
40816;DHT22;26535;48.788;9.214;2023-04-24T10:23:44;13.40;90.60
40816;DHT22;26535;48.788;9.214;2023-04-24T10:26:16;13.30;88.40
40816;DHT22;26535;48.788;9.214;2023-04-24T10:28:47;13.50;87.40
40816;DHT22;26535;48.788;9.214;2023-04-24T10:31:14;13.90;88.30
40816;DHT22;26535;48.788;9.214;2023-04-24T10:33:41;14.40;84.50
40816;DHT22;26535;48.788;9.214;2023-04-24T10:36:09;14.50;82.50
40816;DHT22;26535;48.788;9.214;2023-04-24T10:38:37;14.40;83.00
40816;DHT22;26535;48.788;9.214;2023-04-24T10:41:11;14.40;82.60
40816;DHT22;26535;48.788;9.214;2023-04-24T10:43:42;14.10;83.30
40816;DHT22;26535;48.788;9.214;2023-04-24T10:46:09;13.90;84.40
40816;DHT22;26535;48.788;9.214;2023-04-24T10:48:36;13.80;84.20
40816;DHT22;26535;48.788;9.214;2023-04-24T10:51:11;14.00;85.00
40816;DHT22;26535;48.788;9.214;2023-04-24T10:53:38;14.10;84.50
40816;DHT22;26535;48.788;9.214;2023-04-24T11:01:04;13.90;84.50
40816;DHT22;26535;48.788;9.214;2023-04-24T11:03:32;14.00;84.20
40816;DHT22;26535;48.788;9.214;2023-04-24T11:06:01;14.20;85.00
40816;DHT22;26535;48.788;9.214;2023-04-24T11:08:30;14.40;84.80
40816;DHT22;26535;48.788;9.214;2023-04-24T11:10:59;14.50;83.70
40816;DHT22;26535;48.788;9.214;2023-04-24T11:13:26;14.40;83.90
40816;DHT22;26535;48.788;9.214;2023-04-24T11:21:47;14.00;86.40
40816;DHT22;26535;48.788;9.214;2023-04-24T11:27:15;14.60;83.60
40816;DHT22;26535;48.788;9.214;2023-04-24T11:30:02;14.90;83.80
40816;DHT22;26535;48.788;9.214;2023-04-24T11:32:35;14.90;82.90
40816;DHT22;26535;48.788;9.214;2023-04-24T11:35:19;15.00;82.30
40816;DHT22;26535;48.788;9.214;2023-04-24T11:37:51;15.30;81.80
40816;DHT22;26535;48.788;9.214;2023-04-24T11:40:19;15.20;80.50
40816;DHT22;26535;48.788;9.214;2023-04-24T11:42:50;15.30;80.80
40816;DHT22;26535;48.788;9.214;2023-04-24T11:45:24;15.20;80.00
40816;DHT22;26535;48.788;9.214;2023-04-24T11:47:50;15.00;80.80
40816;DHT22;26535;48.788;9.214;2023-04-24T11:50:18;14.80;81.90
40816;DHT22;26535;48.788;9.214;2023-04-24T11:52:46;14.50;82.80
40816;DHT22;26535;48.788;9.214;2023-04-24T11:57:52;13.80;87.90
40816;DHT22;26535;48.788;9.214;2023-04-24T12:00:23;13.20;90.80
40816;DHT22;26535;48.788;9.214;2023-04-24T12:02:50;13.10;91.30
40816;DHT22;26535;48.788;9.214;2023-04-24T12:05:26;13.40;90.40
40816;DHT22;26535;48.788;9.214;2023-04-24T12:07:53;14.10;88.10
40816;DHT22;26535;48.788;9.214;2023-04-24T12:10:26;14.40;85.90
40816;DHT22;26535;48.788;9.214;2023-04-24T12:12:53;14.90;83.30
40816;DHT22;26535;48.788;9.214;2023-04-24T12:15:19;15.50;82.40
40816;DHT22;26535;48.788;9.214;2023-04-24T12:17:46;15.20;82.20
40816;DHT22;26535;48.788;9.214;2023-04-24T12:20:13;15.10;82.90
40816;DHT22;26535;48.788;9.214;2023-04-24T12:22:56;14.80;83.10
40816;DHT22;26535;48.788;9.214;2023-04-24T12:25:25;14.30;84.40
40816;DHT22;26535;48.788;9.214;2023-04-24T12:28:11;14.10;85.20
40816;DHT22;26535;48.788;9.214;2023-04-24T12:30:42;13.80;85.00
40816;DHT22;26535;48.788;9.214;2023-04-24T12:33:10;13.70;85.00
40816;DHT22;26535;48.788;9.214;2023-04-24T12:35:36;13.70;85.00
40816;DHT22;26535;48.788;9.214;2023-04-24T12:38:15;13.60;84.70
40816;DHT22;26535;48.788;9.214;2023-04-24T12:40:42;13.50;85.70
40816;DHT22;26535;48.788;9.214;2023-04-24T12:43:19;13.60;85.10
40816;DHT22;26535;48.788;9.214;2023-04-24T12:45:45;13.80;84.30
40816;DHT22;26535;48.788;9.214;2023-04-24T12:48:11;14.10;83.80
40816;DHT22;26535;48.788;9.214;2023-04-24T12:50:38;14.40;82.90
40816;DHT22;26535;48.788;9.214;2023-04-24T12:53:04;14.10;83.80
40816;DHT22;26535;48.788;9.214;2023-04-24T12:55:29;14.10;83.30
40816;DHT22;26535;48.788;9.214;2023-04-24T12:57:55;14.00;83.90
40816;DHT22;26535;48.788;9.214;2023-04-24T13:00:21;14.00;83.90
40816;DHT22;26535;48.788;9.214;2023-04-24T13:02:47;13.70;85.20
40816;DHT22;26535;48.788;9.214;2023-04-24T13:05:13;13.80;84.80
40816;DHT22;26535;48.788;9.214;2023-04-24T13:07:39;13.70;85.60
40816;DHT22;26535;48.788;9.214;2023-04-24T13:10:06;13.60;86.40
40816;DHT22;26535;48.788;9.214;2023-04-24T13:12:32;13.60;89.60
40816;DHT22;26535;48.788;9.214;2023-04-24T13:14:58;13.50;93.50
40816;DHT22;26535;48.788;9.214;2023-04-24T13:17:24;13.40;95.10
40816;DHT22;26535;48.788;9.214;2023-04-24T13:19:51;13.80;94.40
40816;DHT22;26535;48.788;9.214;2023-04-24T13:22:17;14.60;94.60
40816;DHT22;26535;48.788;9.214;2023-04-24T13:24:46;15.30;91.60
40816;DHT22;26535;48.788;9.214;2023-04-24T13:27:14;15.20;90.10
40816;DHT22;26535;48.788;9.214;2023-04-24T13:29:40;16.10;90.30
40816;DHT22;26535;48.788;9.214;2023-04-24T13:32:07;15.80;88.30
40816;DHT22;26535;48.788;9.214;2023-04-24T13:34:33;16.30;86.80
40816;DHT22;26535;48.788;9.214;2023-04-24T13:37:01;16.20;86.50
40816;DHT22;26535;48.788;9.214;2023-04-24T13:39:29;16.20;86.30
40816;DHT22;26535;48.788;9.214;2023-04-24T13:41:55;15.80;87.60
40816;DHT22;26535;48.788;9.214;2023-04-24T13:44:21;15.40;87.50
40816;DHT22;26535;48.788;9.214;2023-04-24T13:46:49;14.70;88.10
40816;DHT22;26535;48.788;9.214;2023-04-24T13:49:16;14.40;90.10
40816;DHT22;26535;48.788;9.214;2023-04-24T13:51:42;14.40;90.40
40816;DHT22;26535;48.788;9.214;2023-04-24T13:54:08;14.10;90.20
40816;DHT22;26535;48.788;9.214;2023-04-24T13:56:34;13.80;93.90
40816;DHT22;26535;48.788;9.214;2023-04-24T13:59:00;11.90;99.90
40816;DHT22;26535;48.788;9.214;2023-04-24T14:01:26;10.60;99.90
40816;DHT22;26535;48.788;9.214;2023-04-24T14:03:55;10.00;99.90
40816;DHT22;26535;48.788;9.214;2023-04-24T14:06:21;9.90;99.90
40816;DHT22;26535;48.788;9.214;2023-04-24T14:08:48;10.40;99.90
40816;DHT22;26535;48.788;9.214;2023-04-24T14:11:14;11.90;99.90
40816;DHT22;26535;48.788;9.214;2023-04-24T14:13:41;14.20;99.90
40816;DHT22;26535;48.788;9.214;2023-04-24T14:16:07;16.40;99.90
40816;DHT22;26535;48.788;9.214;2023-04-24T14:18:33;18.20;99.90
40816;DHT22;26535;48.788;9.214;2023-04-24T14:20:59;18.80;91.70
40816;DHT22;26535;48.788;9.214;2023-04-24T14:23:26;18.20;91.50
40816;DHT22;26535;48.788;9.214;2023-04-24T14:25:52;17.70;92.00
40816;DHT22;26535;48.788;9.214;2023-04-24T14:28:19;17.90;91.20
40816;DHT22;26535;48.788;9.214;2023-04-24T14:30:46;18.00;93.10
40816;DHT22;26535;48.788;9.214;2023-04-24T14:33:12;17.90;92.20
40816;DHT22;26535;48.788;9.214;2023-04-24T14:35:39;18.50;90.00
40816;DHT22;26535;48.788;9.214;2023-04-24T14:38:05;20.10;86.40
40816;DHT22;26535;48.788;9.214;2023-04-24T14:40:31;21.20;80.80
40816;DHT22;26535;48.788;9.214;2023-04-24T14:42:58;20.90;75.10
40816;DHT22;26535;48.788;9.214;2023-04-24T14:45:27;20.80;80.10
40816;DHT22;26535;48.788;9.214;2023-04-24T14:47:53;20.50;75.60
40816;DHT22;26535;48.788;9.214;2023-04-24T14:50:19;19.10;76.40
40816;DHT22;26535;48.788;9.214;2023-04-24T14:52:45;18.00;80.20
40816;DHT22;26535;48.788;9.214;2023-04-24T14:55:11;17.30;81.90
40816;DHT22;26535;48.788;9.214;2023-04-24T14:57:37;16.80;82.80
40816;DHT22;26535;48.788;9.214;2023-04-24T15:00:07;16.70;87.50
40816;DHT22;26535;48.788;9.214;2023-04-24T15:02:36;17.80;83.00
40816;DHT22;26535;48.788;9.214;2023-04-24T15:05:06;18.90;79.90
40816;DHT22;26535;48.788;9.214;2023-04-24T15:07:32;20.70;74.50
40816;DHT22;26535;48.788;9.214;2023-04-24T15:09:58;21.00;72.90
40816;DHT22;26535;48.788;9.214;2023-04-24T15:12:24;21.60;71.60
40816;DHT22;26535;48.788;9.214;2023-04-24T15:14:50;20.90;70.80
40816;DHT22;26535;48.788;9.214;2023-04-24T15:17:16;19.10;73.10
40816;DHT22;26535;48.788;9.214;2023-04-24T15:19:41;17.70;76.60
40816;DHT22;26535;48.788;9.214;2023-04-24T15:22:07;16.70;79.70
40816;DHT22;26535;48.788;9.214;2023-04-24T15:24:33;15.70;81.10
40816;DHT22;26535;48.788;9.214;2023-04-24T15:26:59;15.20;84.50
40816;DHT22;26535;48.788;9.214;2023-04-24T15:29:27;14.70;84.50
40816;DHT22;26535;48.788;9.214;2023-04-24T15:31:53;14.40;87.10
40816;DHT22;26535;48.788;9.214;2023-04-24T15:34:22;14.00;86.80
40816;DHT22;26535;48.788;9.214;2023-04-24T15:36:48;14.10;90.10
40816;DHT22;26535;48.788;9.214;2023-04-24T15:39:13;13.90;90.20
40816;DHT22;26535;48.788;9.214;2023-04-24T15:41:39;13.80;91.30
40816;DHT22;26535;48.788;9.214;2023-04-24T15:44:05;13.30;97.30
40816;DHT22;26535;48.788;9.214;2023-04-24T15:46:34;12.50;99.90
40816;DHT22;26535;48.788;9.214;2023-04-24T15:49:00;12.70;99.90
40816;DHT22;26535;48.788;9.214;2023-04-24T15:51:25;13.60;99.90
40816;DHT22;26535;48.788;9.214;2023-04-24T15:53:52;13.70;99.30
40816;DHT22;26535;48.788;9.214;2023-04-24T15:56:18;13.70;97.00
40816;DHT22;26535;48.788;9.214;2023-04-24T15:58:44;14.60;97.30
40816;DHT22;26535;48.788;9.214;2023-04-24T16:01:10;14.90;94.40
40816;DHT22;26535;48.788;9.214;2023-04-24T16:03:36;15.50;95.20
40816;DHT22;26535;48.788;9.214;2023-04-24T16:06:02;16.00;92.70
40816;DHT22;26535;48.788;9.214;2023-04-24T16:08:28;18.50;90.90
40816;DHT22;26535;48.788;9.214;2023-04-24T16:10:56;20.40;87.40
40816;DHT22;26535;48.788;9.214;2023-04-24T16:13:22;21.10;79.00
40816;DHT22;26535;48.788;9.214;2023-04-24T16:15:50;21.40;76.60
40816;DHT22;26535;48.788;9.214;2023-04-24T16:18:16;21.20;76.70
40816;DHT22;26535;48.788;9.214;2023-04-24T16:20:42;22.50;77.20
40816;DHT22;26535;48.788;9.214;2023-04-24T16:23:07;24.00;71.70
40816;DHT22;26535;48.788;9.214;2023-04-24T16:25:33;24.50;68.60
40816;DHT22;26535;48.788;9.214;2023-04-24T16:27:59;24.30;67.80
40816;DHT22;26535;48.788;9.214;2023-04-24T16:30:25;25.10;67.10
40816;DHT22;26535;48.788;9.214;2023-04-24T16:32:51;24.30;67.70
40816;DHT22;26535;48.788;9.214;2023-04-24T16:35:19;23.00;67.50
40816;DHT22;26535;48.788;9.214;2023-04-24T16:37:45;21.20;69.80
40816;DHT22;26535;48.788;9.214;2023-04-24T16:40:11;19.90;73.80
40816;DHT22;26535;48.788;9.214;2023-04-24T16:42:37;18.70;77.60
40816;DHT22;26535;48.788;9.214;2023-04-24T16:45:12;17.90;80.20
40816;DHT22;26535;48.788;9.214;2023-04-24T16:47:37;17.30;80.90
40816;DHT22;26535;48.788;9.214;2023-04-24T16:50:04;16.70;82.30
40816;DHT22;26535;48.788;9.214;2023-04-24T16:52:29;16.40;85.20
40816;DHT22;26535;48.788;9.214;2023-04-24T16:54:55;16.10;83.70
40816;DHT22;26535;48.788;9.214;2023-04-24T16:57:24;15.90;85.30
40816;DHT22;26535;48.788;9.214;2023-04-24T16:59:53;15.80;84.70
40816;DHT22;26535;48.788;9.214;2023-04-24T17:02:18;15.70;86.50
40816;DHT22;26535;48.788;9.214;2023-04-24T17:04:44;15.40;85.90
40816;DHT22;26535;48.788;9.214;2023-04-24T17:07:10;15.80;84.10
40816;DHT22;26535;48.788;9.214;2023-04-24T17:09:38;16.00;85.40
40816;DHT22;26535;48.788;9.214;2023-04-24T17:12:04;16.10;84.90
40816;DHT22;26535;48.788;9.214;2023-04-24T17:14:30;16.10;81.50
40816;DHT22;26535;48.788;9.214;2023-04-24T17:16:56;15.70;82.60
40816;DHT22;26535;48.788;9.214;2023-04-24T17:19:22;15.60;84.90
40816;DHT22;26535;48.788;9.214;2023-04-24T17:21:48;15.40;83.00
40816;DHT22;26535;48.788;9.214;2023-04-24T17:24:13;15.10;83.50
40816;DHT22;26535;48.788;9.214;2023-04-24T17:26:39;14.80;83.50
40816;DHT22;26535;48.788;9.214;2023-04-24T17:29:05;14.70;84.30
40816;DHT22;26535;48.788;9.214;2023-04-24T17:31:31;14.80;82.60
40816;DHT22;26535;48.788;9.214;2023-04-24T17:33:56;14.60;82.50
40816;DHT22;26535;48.788;9.214;2023-04-24T17:36:23;14.40;83.10
40816;DHT22;26535;48.788;9.214;2023-04-24T17:38:49;14.20;83.40
40816;DHT22;26535;48.788;9.214;2023-04-24T17:41:15;14.00;83.70
40816;DHT22;26535;48.788;9.214;2023-04-24T17:43:41;13.70;82.60
40816;DHT22;26535;48.788;9.214;2023-04-24T17:46:07;13.50;84.10
40816;DHT22;26535;48.788;9.214;2023-04-24T17:48:34;13.30;84.20
40816;DHT22;26535;48.788;9.214;2023-04-24T17:51:00;13.10;84.90
40816;DHT22;26535;48.788;9.214;2023-04-24T17:53:25;13.00;85.40
40816;DHT22;26535;48.788;9.214;2023-04-24T17:55:51;12.90;85.80
40816;DHT22;26535;48.788;9.214;2023-04-24T17:58:19;12.90;86.60
40816;DHT22;26535;48.788;9.214;2023-04-24T18:00:45;12.90;87.00
40816;DHT22;26535;48.788;9.214;2023-04-24T18:03:11;12.80;87.00
40816;DHT22;26535;48.788;9.214;2023-04-24T18:05:37;12.80;87.00
40816;DHT22;26535;48.788;9.214;2023-04-24T18:08:04;12.70;87.10
40816;DHT22;26535;48.788;9.214;2023-04-24T18:10:31;12.70;88.30
40816;DHT22;26535;48.788;9.214;2023-04-24T18:12:58;12.70;88.30
40816;DHT22;26535;48.788;9.214;2023-04-24T18:15:24;12.60;88.60
40816;DHT22;26535;48.788;9.214;2023-04-24T18:17:50;12.70;89.00
40816;DHT22;26535;48.788;9.214;2023-04-24T18:20:17;12.70;88.20
40816;DHT22;26535;48.788;9.214;2023-04-24T18:22:43;12.60;89.00
40816;DHT22;26535;48.788;9.214;2023-04-24T18:25:09;12.60;89.00
40816;DHT22;26535;48.788;9.214;2023-04-24T18:27:36;12.60;89.20
40816;DHT22;26535;48.788;9.214;2023-04-24T18:30:02;12.50;89.30
40816;DHT22;26535;48.788;9.214;2023-04-24T18:32:28;12.50;89.80
40816;DHT22;26535;48.788;9.214;2023-04-24T18:34:54;12.40;90.00
40816;DHT22;26535;48.788;9.214;2023-04-24T18:37:20;12.30;90.20
40816;DHT22;26535;48.788;9.214;2023-04-24T18:39:45;12.20;90.10
40816;DHT22;26535;48.788;9.214;2023-04-24T18:42:11;12.20;90.30
40816;DHT22;26535;48.788;9.214;2023-04-24T18:44:37;12.10;90.50
40816;DHT22;26535;48.788;9.214;2023-04-24T18:47:08;12.00;90.90
40816;DHT22;26535;48.788;9.214;2023-04-24T18:49:34;11.90;90.70
40816;DHT22;26535;48.788;9.214;2023-04-24T18:52:00;11.80;91.00
40816;DHT22;26535;48.788;9.214;2023-04-24T18:54:26;11.80;91.20
40816;DHT22;26535;48.788;9.214;2023-04-24T18:56:51;11.70;91.40
40816;DHT22;26535;48.788;9.214;2023-04-24T18:59:18;11.60;91.70
40816;DHT22;26535;48.788;9.214;2023-04-24T19:01:44;11.50;91.90
40816;DHT22;26535;48.788;9.214;2023-04-24T19:04:10;11.40;92.40
40816;DHT22;26535;48.788;9.214;2023-04-24T19:06:36;11.20;92.40
40816;DHT22;26535;48.788;9.214;2023-04-24T19:09:02;11.20;92.90
40816;DHT22;26535;48.788;9.214;2023-04-24T19:11:28;11.10;93.00
40816;DHT22;26535;48.788;9.214;2023-04-24T19:13:54;10.90;93.30
40816;DHT22;26535;48.788;9.214;2023-04-24T19:16:20;10.80;93.90
40816;DHT22;26535;48.788;9.214;2023-04-24T19:18:45;10.70;94.60
40816;DHT22;26535;48.788;9.214;2023-04-24T19:21:11;10.60;95.00
40816;DHT22;26535;48.788;9.214;2023-04-24T19:23:37;10.60;95.00
40816;DHT22;26535;48.788;9.214;2023-04-24T19:26:06;10.50;95.60
40816;DHT22;26535;48.788;9.214;2023-04-24T19:28:32;10.40;95.70
40816;DHT22;26535;48.788;9.214;2023-04-24T19:30:57;10.40;95.90
40816;DHT22;26535;48.788;9.214;2023-04-24T19:33:27;10.30;96.20
40816;DHT22;26535;48.788;9.214;2023-04-24T19:35:53;10.30;96.50
40816;DHT22;26535;48.788;9.214;2023-04-24T19:38:19;10.30;96.30
40816;DHT22;26535;48.788;9.214;2023-04-24T19:40:45;10.30;96.40
40816;DHT22;26535;48.788;9.214;2023-04-24T19:43:11;10.30;96.60
40816;DHT22;26535;48.788;9.214;2023-04-24T19:45:36;10.30;97.00
40816;DHT22;26535;48.788;9.214;2023-04-24T19:48:02;10.20;97.20
40816;DHT22;26535;48.788;9.214;2023-04-24T19:50:28;10.20;97.20
40816;DHT22;26535;48.788;9.214;2023-04-24T19:52:56;10.20;97.60
40816;DHT22;26535;48.788;9.214;2023-04-24T19:55:22;10.10;97.60
40816;DHT22;26535;48.788;9.214;2023-04-24T19:57:47;10.10;97.80
40816;DHT22;26535;48.788;9.214;2023-04-24T20:00:13;10.10;97.80
40816;DHT22;26535;48.788;9.214;2023-04-24T20:02:39;10.10;97.50
40816;DHT22;26535;48.788;9.214;2023-04-24T20:05:05;10.10;97.50
40816;DHT22;26535;48.788;9.214;2023-04-24T20:07:31;10.10;97.60
40816;DHT22;26535;48.788;9.214;2023-04-24T20:09:57;10.20;97.80
40816;DHT22;26535;48.788;9.214;2023-04-24T20:12:23;10.10;97.80
40816;DHT22;26535;48.788;9.214;2023-04-24T20:14:49;10.10;97.60
40816;DHT22;26535;48.788;9.214;2023-04-24T20:17:15;10.10;97.60
40816;DHT22;26535;48.788;9.214;2023-04-24T20:19:41;10.10;97.80
40816;DHT22;26535;48.788;9.214;2023-04-24T20:22:09;10.00;98.00
40816;DHT22;26535;48.788;9.214;2023-04-24T20:24:35;10.00;98.30
40816;DHT22;26535;48.788;9.214;2023-04-24T20:27:01;9.90;98.50
40816;DHT22;26535;48.788;9.214;2023-04-24T20:29:27;9.80;98.70
40816;DHT22;26535;48.788;9.214;2023-04-24T20:31:52;9.80;99.00
40816;DHT22;26535;48.788;9.214;2023-04-24T20:34:19;9.80;99.00
40816;DHT22;26535;48.788;9.214;2023-04-24T20:36:45;9.80;99.00
40816;DHT22;26535;48.788;9.214;2023-04-24T20:39:11;9.80;99.10
40816;DHT22;26535;48.788;9.214;2023-04-24T20:41:37;9.80;99.20
40816;DHT22;26535;48.788;9.214;2023-04-24T20:44:04;9.80;99.30
40816;DHT22;26535;48.788;9.214;2023-04-24T20:46:29;9.80;99.40
40816;DHT22;26535;48.788;9.214;2023-04-24T20:48:56;9.80;99.10